Time;durP1;ratioP1;P1;durP2;ratioP2;P2;SDS_P1;SDS_P2;PMS_P1;PMS_P2;Temp;Humidity;BMP_temperature;BMP_pressure;BME280_temperature;BME280_humidity;BME280_pressure;Samples;Min_cycle;Max_cycle;Signal;HPM_P1;HPM_P2
2022/04/27 00:00:31;;;;;;;5.90;3.75;;;8.30;99.90;;;;;;5089391;28;20467;-82
2022/04/27 00:02:58;;;;;;;4.15;3.75;;;8.20;99.90;;;;;;5089616;28;20384;-83
2022/04/27 00:05:24;;;;;;;4.63;3.80;;;8.10;99.90;;;;;;5089110;28;20388;-82
2022/04/27 00:07:50;;;;;;;5.43;3.70;;;7.70;99.90;;;;;;5090571;28;20404;-82
2022/04/27 00:10:19;;;;;;;5.45;3.50;;;7.60;99.90;;;;;;5088895;28;20805;-82
2022/04/27 00:12:45;;;;;;;5.30;3.95;;;7.50;99.90;;;;;;5090058;28;20379;-81
2022/04/27 00:15:11;;;;;;;5.50;3.80;;;7.60;99.90;;;;;;5090671;28;20369;-80
2022/04/27 00:17:37;;;;;;;4.00;3.60;;;7.60;99.90;;;;;;5090337;28;20368;-82
2022/04/27 00:20:04;;;;;;;5.15;3.60;;;7.60;99.90;;;;;;5089334;28;21213;-82
2022/04/27 00:22:30;;;;;;;4.32;3.50;;;7.60;99.90;;;;;;5089406;28;20376;-82
2022/04/27 00:25:00;;;;;;;5.65;4.15;;;7.50;99.90;;;;;;5090227;28;20712;-81
2022/04/27 00:27:27;;;;;;;5.38;4.03;;;7.50;99.90;;;;;;5090249;28;20408;-82
2022/04/27 00:29:52;;;;;;;4.40;4.00;;;7.60;99.90;;;;;;5089802;28;20384;-81
2022/04/27 00:32:18;;;;;;;6.13;4.32;;;7.60;99.90;;;;;;5088574;28;20376;-82
2022/04/27 00:34:44;;;;;;;6.43;4.10;;;7.60;99.90;;;;;;5089123;28;20468;-81
2022/04/27 00:37:09;;;;;;;6.37;4.60;;;7.60;99.90;;;;;;5089756;28;20396;-82
2022/04/27 00:39:35;;;;;;;5.37;4.07;;;7.50;99.90;;;;;;5090227;28;20885;-81
2022/04/27 00:42:19;;;;;;;4.72;4.20;;;7.40;99.90;;;;;;5088377;28;20367;-82
2022/04/27 00:44:46;;;;;;;5.17;3.87;;;7.50;99.90;;;;;;5090103;28;20372;-81
2022/04/27 00:47:13;;;;;;;5.00;4.45;;;7.50;99.90;;;;;;5089562;28;20412;-82
2022/04/27 00:49:52;;;;;;;4.78;4.28;;;7.50;99.90;;;;;;5088615;28;20365;-82
2022/04/27 00:52:19;;;;;;;6.20;5.20;;;7.40;99.90;;;;;;5089767;28;20389;-81
2022/04/27 00:54:51;;;;;;;5.03;4.57;;;7.30;99.90;;;;;;5089515;28;20407;-82
2022/04/27 00:57:17;;;;;;;4.93;4.43;;;7.20;99.90;;;;;;5088195;28;20494;-81
2022/04/27 00:59:45;;;;;;;5.07;4.40;;;7.10;99.90;;;;;;5103420;28;20377;-81
2022/04/27 01:02:10;;;;;;;4.55;4.07;;;7.10;99.90;;;;;;5088281;28;20375;-82
2022/04/27 01:04:37;;;;;;;4.67;4.10;;;7.00;99.90;;;;;;5087094;28;20786;-82
2022/04/27 01:07:04;;;;;;;6.38;5.13;;;6.90;99.90;;;;;;5088321;28;20430;-81
2022/04/27 01:09:30;;;;;;;4.88;4.38;;;6.80;99.90;;;;;;5089200;28;20369;-82
2022/04/27 01:11:57;;;;;;;5.43;4.43;;;7.70;99.90;;;;;;5087906;28;20459;-82
2022/04/27 01:14:22;;;;;;;5.28;4.78;;;6.70;99.90;;;;;;5087617;28;20743;-82
2022/04/27 01:16:52;;;;;;;4.95;4.55;;;6.70;99.90;;;;;;5087556;28;20371;-82
2022/04/27 01:19:18;;;;;;;4.25;3.85;;;6.60;99.90;;;;;;5089021;28;20445;-82
2022/04/27 01:21:44;;;;;;;4.68;4.28;;;6.60;99.90;;;;;;5087964;28;20377;-82
2022/04/27 01:24:11;;;;;;;6.25;5.25;;;6.60;99.90;;;;;;5087699;28;20444;-82
2022/04/27 01:26:37;;;;;;;6.55;5.10;;;6.60;99.90;;;;;;5087357;28;20444;-81
2022/04/27 01:29:04;;;;;;;6.05;5.28;;;6.70;99.90;;;;;;5089178;28;20384;-82
2022/04/27 01:31:30;;;;;;;5.80;5.13;;;6.70;99.90;;;;;;5087742;28;20451;-81
2022/04/27 01:33:55;;;;;;;6.50;5.30;;;6.60;99.90;;;;;;5087720;28;20534;-83
2022/04/27 01:36:21;;;;;;;8.82;5.72;;;6.50;99.90;;;;;;5088646;28;20365;-82
2022/04/27 01:38:47;;;;;;;5.80;4.80;;;6.40;99.90;;;;;;5088494;28;20392;-82
2022/04/27 01:41:12;;;;;;;9.97;6.63;;;6.50;99.90;;;;;;5087239;28;20403;-82
2022/04/27 01:43:38;;;;;;;5.27;4.77;;;6.30;99.90;;;;;;5088865;28;20798;-82
2022/04/27 01:46:08;;;;;;;6.32;5.25;;;6.30;99.90;;;;;;5087084;28;20483;-82
2022/04/27 01:48:33;;;;;;;7.25;6.55;;;6.40;99.90;;;;;;5087801;28;20962;-82
2022/04/27 01:50:59;;;;;;;7.88;5.28;;;6.30;99.90;;;;;;5087222;28;20388;-82
2022/04/27 01:56:09;;;;;;;5.30;4.80;;;6.30;99.90;;;;;;5088431;28;20453;-82
2022/04/27 01:58:35;;;;;;;8.43;7.53;;;6.20;99.90;;;;;;5087509;28;20742;-82
2022/04/27 02:01:00;;;;;;;6.67;5.90;;;6.10;99.90;;;;;;5087923;28;20380;-82
2022/04/27 02:03:26;;;;;;;11.00;8.50;;;6.20;99.90;;;;;;5088291;28;20380;-83
2022/04/27 02:05:52;;;;;;;10.30;7.40;;;6.20;99.90;;;;;;5087520;28;20839;-82
2022/04/27 02:08:18;;;;;;;7.40;5.63;;;6.30;99.90;;;;;;5088701;28;20365;-82
2022/04/27 02:10:45;;;;;;;10.57;8.32;;;6.40;99.90;;;;;;5088790;28;20387;-82
2022/04/27 02:13:11;;;;;;;9.48;7.93;;;6.30;99.90;;;;;;5088347;28;20388;-82
2022/04/27 02:15:38;;;;;;;9.15;8.20;;;6.30;99.90;;;;;;5088673;28;20368;-82
2022/04/27 02:18:04;;;;;;;10.52;8.25;;;6.30;99.90;;;;;;5088350;28;20376;-82
2022/04/27 02:20:30;;;;;;;9.18;8.07;;;6.20;99.90;;;;;;5086950;28;20408;-82
2022/04/27 02:22:56;;;;;;;7.15;6.40;;;6.30;99.90;;;;;;5087062;28;20435;-82
2022/04/27 02:25:22;;;;;;;9.68;8.55;;;6.20;99.90;;;;;;5087170;28;20384;-82
2022/04/27 02:27:49;;;;;;;7.28;6.57;;;6.20;99.90;;;;;;5087285;28;20404;-82
2022/04/27 02:30:16;;;;;;;7.10;6.40;;;6.10;99.90;;;;;;5091171;28;20877;-82
2022/04/27 02:32:42;;;;;;;9.93;7.30;;;6.10;99.90;;;;;;5090939;28;20443;-82
2022/04/27 02:35:08;;;;;;;6.63;6.03;;;6.00;99.90;;;;;;5090964;28;20925;-82
2022/04/27 02:37:35;;;;;;;7.43;6.63;;;6.00;99.90;;;;;;5090829;28;20400;-82
2022/04/27 02:40:02;;;;;;;6.70;6.10;;;6.00;99.90;;;;;;5091688;28;20906;-82
2022/04/27 02:42:27;;;;;;;7.45;6.75;;;5.80;99.90;;;;;;5090551;28;20885;-82
2022/04/27 02:44:53;;;;;;;7.77;6.40;;;5.70;99.90;;;;;;5090640;28;20377;-82
2022/04/27 02:47:19;;;;;;;9.40;7.37;;;5.70;99.90;;;;;;5091867;28;20892;-82
2022/04/27 02:52:29;;;;;;;8.05;6.65;;;5.50;99.90;;;;;;5091787;28;20488;-81
2022/04/27 02:54:55;;;;;;;8.38;7.57;;;5.40;99.90;;;;;;5091590;28;20463;-82
2022/04/27 02:57:21;;;;;;;8.40;7.40;;;5.30;99.90;;;;;;5090185;28;20723;-82
2022/04/27 02:59:47;;;;;;;8.45;7.65;;;5.20;99.90;;;;;;5091535;28;20384;-82
2022/04/27 03:02:12;;;;;;;7.60;6.80;;;5.10;99.90;;;;;;5091710;28;20369;-82
2022/04/27 03:04:38;;;;;;;7.50;6.70;;;5.00;99.90;;;;;;5090141;28;20878;-82
2022/04/27 03:07:04;;;;;;;10.50;7.73;;;5.00;99.90;;;;;;5091594;28;20487;-81
2022/04/27 03:09:29;;;;;;;8.40;7.50;;;4.90;99.90;;;;;;5090437;28;20471;-81
2022/04/27 03:11:55;;;;;;;8.17;7.40;;;5.00;99.90;;;;;;5107015;28;20391;-82
2022/04/27 03:14:21;;;;;;;7.83;7.03;;;4.90;99.90;;;;;;5089942;28;20812;-82
2022/04/27 03:16:48;;;;;;;8.67;7.77;;;4.80;99.90;;;;;;5090057;28;20455;-81
2022/04/27 03:19:14;;;;;;;7.40;6.70;;;4.80;99.90;;;;;;5090438;28;20373;-82
2022/04/27 03:21:40;;;;;;;7.37;6.67;;;4.90;99.90;;;;;;5090239;28;20525;-82
2022/04/27 03:24:05;;;;;;;8.57;7.57;;;4.80;99.90;;;;;;5089805;28;20385;-82
2022/04/27 03:26:32;;;;;;;7.80;7.00;;;4.60;99.90;;;;;;5089962;28;20389;-81
2022/04/27 03:28:58;;;;;;;10.45;8.40;;;4.60;99.90;;;;;;5089624;28;20910;-82
2022/04/27 03:31:24;;;;;;;9.38;8.45;;;4.60;99.90;;;;;;5089322;28;20886;-82
2022/04/27 03:33:49;;;;;;;9.35;8.45;;;4.50;99.90;;;;;;5089614;28;20384;-82
2022/04/27 03:36:15;;;;;;;11.30;7.45;;;4.40;99.90;;;;;;5089914;28;20373;-81
2022/04/27 03:38:43;;;;;;;20.23;8.37;;;4.40;99.90;;;;;;5089142;28;20392;-81
2022/04/27 03:41:08;;;;;;;11.98;7.50;;;4.30;99.90;;;;;;5089613;28;20383;-81
2022/04/27 03:43:34;;;;;;;12.73;8.27;;;4.30;99.90;;;;;;5090631;28;20360;-81
2022/04/27 03:46:00;;;;;;;9.33;8.43;;;4.30;99.90;;;;;;5090873;28;21123;-81
2022/04/27 03:48:26;;;;;;;13.67;8.67;;;4.20;99.90;;;;;;5089569;28;20381;-81
2022/04/27 03:50:52;;;;;;;10.47;7.97;;;4.20;99.90;;;;;;5106854;28;20457;-82
2022/04/27 03:53:18;;;;;;;10.60;8.20;;;4.10;99.90;;;;;;5089521;28;20495;-82
2022/04/27 03:55:43;;;;;;;11.03;8.20;;;4.10;99.90;;;;;;5091043;28;20380;-81
2022/04/27 03:58:09;;;;;;;9.07;8.17;;;4.10;99.90;;;;;;5090312;28;20480;-82
2022/04/27 04:00:35;;;;;;;8.97;8.07;;;4.00;99.90;;;;;;5090670;28;20481;-82
2022/04/27 04:03:01;;;;;;;8.93;7.75;;;4.00;99.90;;;;;;5089021;28;20372;-81
2022/04/27 04:05:27;;;;;;;9.48;8.40;;;4.00;99.90;;;;;;5089092;28;20412;-81
2022/04/27 04:07:53;;;;;;;8.70;7.80;;;4.00;99.90;;;;;;5089147;28;20412;-81
2022/04/27 04:10:18;;;;;;;9.63;8.55;;;4.10;99.90;;;;;;5090285;28;20376;-81
2022/04/27 04:12:45;;;;;;;9.32;8.40;;;4.10;99.90;;;;;;5088753;28;20890;-82
2022/04/27 04:15:12;;;;;;;9.88;8.77;;;4.10;99.90;;;;;;5088859;28;20460;-82
2022/04/27 04:17:40;;;;;;;10.10;8.93;;;4.20;99.90;;;;;;5090388;28;20368;-82
2022/04/27 04:20:07;;;;;;;10.55;8.30;;;4.20;99.90;;;;;;5090322;28;20419;-82
2022/04/27 04:22:35;;;;;;;10.25;8.27;;;4.30;99.90;;;;;;5089090;28;20377;-82
2022/04/27 04:30:29;;;;;;;9.25;7.88;;;4.60;99.90;;;;;;5090530;28;20391;-82
2022/04/27 04:32:54;;;;;;;9.23;7.83;;;4.80;99.90;;;;;;5090201;28;20780;-82
2022/04/27 04:35:20;;;;;;;9.13;7.97;;;5.10;99.90;;;;;;5099007;28;20376;-81
2022/04/27 04:37:46;;;;;;;12.00;8.10;;;5.20;99.90;;;;;;5094458;28;20425;-82
2022/04/27 04:40:11;;;;;;;8.35;7.55;;;5.30;99.90;;;;;;5089192;28;20380;-81
2022/04/27 04:42:37;;;;;;;8.97;7.20;;;5.50;99.90;;;;;;5090117;28;20376;-81
2022/04/27 04:45:03;;;;;;;7.33;6.63;;;5.70;99.90;;;;;;5090230;28;20518;-82
2022/04/27 04:47:30;;;;;;;8.98;7.85;;;5.80;99.90;;;;;;5088606;28;20921;-82
2022/04/27 04:49:55;;;;;;;10.07;8.40;;;6.00;99.90;;;;;;5089695;28;20371;-82
2022/04/27 04:52:21;;;;;;;9.10;8.07;;;6.20;99.90;;;;;;5087525;28;20396;-81
2022/04/27 04:54:47;;;;;;;9.02;8.13;;;6.30;99.90;;;;;;5089856;28;20727;-82
2022/04/27 04:57:12;;;;;;;10.77;8.80;;;6.60;99.90;;;;;;5071534;28;20413;-82
2022/04/27 04:59:38;;;;;;;10.20;9.20;;;6.80;99.90;;;;;;5088738;28;20435;-82
2022/04/27 05:02:04;;;;;;;9.73;8.63;;;7.00;99.90;;;;;;5088241;28;20379;-82
2022/04/27 05:04:30;;;;;;;10.38;9.25;;;7.20;99.90;;;;;;5088618;28;20373;-81
2022/04/27 05:06:56;;;;;;;28.50;22.60;;;7.40;99.90;;;;;;5088116;28;20408;-81
2022/04/27 05:09:22;;;;;;;52.65;43.05;;;7.50;99.90;;;;;;5089783;28;20380;-81
2022/04/27 05:11:48;;;;;;;45.47;40.40;;;7.60;99.90;;;;;;5088493;28;20399;-81
2022/04/27 05:14:13;;;;;;;24.97;22.33;;;7.70;99.90;;;;;;5088361;28;20427;-80
2022/04/27 05:16:39;;;;;;;25.35;22.08;;;7.60;99.90;;;;;;5089824;28;20737;-81
2022/04/27 05:19:06;;;;;;;33.13;29.52;;;7.60;99.90;;;;;;5089200;28;21157;-81
2022/04/27 05:21:32;;;;;;;37.38;31.25;;;7.70;99.90;;;;;;5087792;28;20364;-81
2022/04/27 05:23:57;;;;;;;28.67;25.63;;;7.90;99.90;;;;;;5087846;28;20425;-82
2022/04/27 05:26:23;;;;;;;16.60;14.57;;;8.10;99.90;;;;;;5087125;28;20420;-81
2022/04/27 05:34:17;;;;;;;12.82;9.32;;;8.60;99.90;;;;;;5089210;28;20949;-81
2022/04/27 05:36:42;;;;;;;11.83;8.80;;;8.80;99.90;;;;;;5089297;28;20459;-81
2022/04/27 05:39:08;;;;;;;10.70;8.95;;;8.90;99.90;;;;;;5088636;28;20908;-82
2022/04/27 05:41:34;;;;;;;9.70;8.70;;;9.10;99.90;;;;;;5087135;28;20369;-81
2022/04/27 05:44:02;;;;;;;10.93;8.90;;;9.10;99.90;;;;;;5088648;28;20379;-82
2022/04/27 05:46:28;;;;;;;10.63;9.40;;;9.20;99.90;;;;;;5088725;28;20408;-81
2022/04/27 05:48:54;;;;;;;9.73;8.70;;;9.10;99.90;;;;;;5087499;28;20915;-82
2022/04/27 05:51:19;;;;;;;12.05;8.95;;;9.00;99.90;;;;;;5088934;28;20380;-81
2022/04/27 05:53:45;;;;;;;10.80;8.43;;;9.20;99.90;;;;;;5088224;28;20380;-81
2022/04/27 05:56:12;;;;;;;11.55;8.38;;;9.40;99.90;;;;;;5088934;28;20900;-81
2022/04/27 05:58:38;;;;;;;10.88;8.43;;;9.80;99.90;;;;;;5088596;28;20436;-82
2022/04/27 06:01:05;;;;;;;10.02;8.43;;;10.10;99.90;;;;;;5088480;28;20788;-82
2022/04/27 06:03:30;;;;;;;10.93;8.57;;;10.20;99.90;;;;;;5092055;28;20874;-82
2022/04/27 06:05:56;;;;;;;10.63;8.13;;;10.40;99.90;;;;;;5091499;28;20446;-82
2022/04/27 06:08:22;;;;;;;10.40;7.93;;;10.60;99.90;;;;;;5091262;28;20798;-82
2022/04/27 06:10:47;;;;;;;16.55;8.88;;;10.70;99.90;;;;;;5091443;28;20368;-81
2022/04/27 06:13:13;;;;;;;9.03;7.97;;;10.90;99.90;;;;;;5091109;28;20380;-81
2022/04/27 06:15:39;;;;;;;9.32;7.38;;;11.10;99.90;;;;;;5089434;28;20407;-82
2022/04/27 06:18:05;;;;;;;8.80;7.13;;;11.20;99.90;;;;;;5090097;28;20880;-82
2022/04/27 06:20:32;;;;;;;9.77;8.77;;;11.30;99.90;;;;;;5090732;28;21069;-81
2022/04/27 06:22:58;;;;;;;9.63;7.85;;;11.30;99.90;;;;;;5091414;28;20376;-81
2022/04/27 06:25:25;;;;;;;8.20;7.25;;;11.50;99.90;;;;;;5090300;28;20481;-81
2022/04/27 06:27:51;;;;;;;10.25;7.43;;;11.70;99.90;;;;;;5090183;28;20486;-81
2022/04/27 06:30:17;;;;;;;8.75;7.18;;;11.70;99.90;;;;;;5090239;28;20919;-82
2022/04/27 06:32:43;;;;;;;7.45;6.75;;;11.80;99.90;;;;;;5093503;28;20372;-80
2022/04/27 06:35:13;;;;;;;8.10;7.00;;;12.10;99.90;;;;;;5091981;28;20368;-82
2022/04/27 06:37:39;;;;;;;11.57;6.75;;;12.20;99.90;;;;;;5092667;28;20369;-82
2022/04/27 06:40:05;;;;;;;9.48;7.60;;;12.40;99.90;;;;;;5093021;28;20368;-81
2022/04/27 06:42:31;;;;;;;8.03;6.60;;;12.50;99.90;;;;;;5092089;28;20384;-81
2022/04/27 06:45:00;;;;;;;8.53;6.83;;;12.60;99.90;;;;;;5091393;28;20400;-83
2022/04/27 06:47:26;;;;;;;29.77;9.15;;;12.90;99.90;;;;;;5091346;28;20407;-82
2022/04/27 06:49:51;;;;;;;11.63;7.40;;;13.00;99.90;;;;;;5093428;28;20372;-81
2022/04/27 06:52:17;;;;;;;9.40;7.43;;;13.20;99.90;;;;;;5075296;28;20377;-81
2022/04/27 06:54:42;;;;;;;9.23;7.25;;;13.20;99.90;;;;;;5072810;28;20461;-80
2022/04/27 06:57:09;;;;;;;9.10;6.90;;;13.30;99.90;;;;;;5074222;28;20382;-81
2022/04/27 06:59:34;;;;;;;9.07;7.47;;;13.30;99.90;;;;;;5072634;28;20887;-82
2022/04/27 07:02:00;;;;;;;11.20;6.93;;;13.30;99.90;;;;;;5090061;28;20404;-82
2022/04/27 07:04:27;;;;;;;8.13;7.33;;;13.60;99.90;;;;;;5091682;28;20376;-82
2022/04/27 07:06:54;;;;;;;11.10;7.55;;;13.50;99.90;;;;;;5093240;28;20898;-83
2022/04/27 07:09:20;;;;;;;9.98;7.20;;;13.80;99.90;;;;;;5096856;28;20415;-80
2022/04/27 07:11:46;;;;;;;8.65;7.85;;;13.70;99.80;;;;;;5092474;28;20484;-81
2022/04/27 07:14:15;;;;;;;9.68;7.45;;;13.60;99.90;;;;;;5093430;28;20454;-82
2022/04/27 07:16:42;;;;;;;9.33;7.40;;;13.80;99.90;;;;;;5094137;28;20392;-80
2022/04/27 07:19:08;;;;;;;7.85;6.70;;;13.70;99.90;;;;;;5090206;28;20384;-82
2022/04/27 07:21:33;;;;;;;8.98;7.53;;;14.00;99.90;;;;;;5095118;28;20395;-82
2022/04/27 07:24:02;;;;;;;8.40;7.17;;;14.00;99.10;;;;;;5092152;28;20393;-81
2022/04/27 07:26:28;;;;;;;8.73;6.57;;;14.10;99.90;;;;;;5091938;28;20458;-83
2022/04/27 07:28:55;;;;;;;8.90;6.43;;;14.60;99.90;;;;;;5093633;28;20372;-82
2022/04/27 07:31:22;;;;;;;7.97;6.72;;;14.70;98.60;;;;;;5095608;28;20384;-81
2022/04/27 07:33:47;;;;;;;8.23;6.80;;;14.70;97.40;;;;;;5094660;28;20729;-82
2022/04/27 07:36:13;;;;;;;9.55;6.50;;;14.70;97.90;;;;;;5091426;28;20972;-80
2022/04/27 07:38:39;;;;;;;9.07;6.32;;;14.70;97.40;;;;;;5093651;28;20384;-81
2022/04/27 07:41:06;;;;;;;10.18;6.72;;;14.50;97.40;;;;;;5092520;28;20389;-82
2022/04/27 07:43:31;;;;;;;9.25;6.88;;;14.50;96.60;;;;;;5092043;28;20404;-81
2022/04/27 07:45:57;;;;;;;8.30;6.70;;;14.70;97.40;;;;;;5094652;28;20416;-82
2022/04/27 07:48:23;;;;;;;11.98;6.57;;;14.40;97.00;;;;;;5092251;28;20377;-80
2022/04/27 07:50:50;;;;;;;7.77;6.70;;;14.40;97.40;;;;;;5094286;28;20739;-81
2022/04/27 07:53:16;;;;;;;8.50;6.55;;;14.40;97.80;;;;;;5094343;28;20379;-80
2022/04/27 07:55:41;;;;;;;8.80;6.60;;;14.80;97.60;;;;;;5092123;28;20372;-82
2022/04/27 07:58:07;;;;;;;8.57;6.20;;;15.10;96.00;;;;;;5094422;28;20429;-80
2022/04/27 08:00:33;;;;;;;7.35;6.05;;;15.40;96.00;;;;;;5095531;28;20483;-81
2022/04/27 08:02:59;;;;;;;17.85;6.72;;;15.70;95.80;;;;;;5092071;28;20380;-82
2022/04/27 08:05:25;;;;;;;7.43;5.60;;;15.70;94.20;;;;;;5090312;28;20467;-81
2022/04/27 08:07:50;;;;;;;8.63;6.03;;;15.80;93.30;;;;;;5091775;28;20955;-81
2022/04/27 08:10:19;;;;;;;8.60;6.20;;;15.90;93.80;;;;;;5092321;28;20380;-82
2022/04/27 08:12:49;;;;;;;9.27;6.70;;;16.00;93.30;;;;;;5091324;28;21238;-82
2022/04/27 08:15:20;;;;;;;7.60;6.05;;;15.80;93.20;;;;;;5091077;28;20369;-82
2022/04/27 08:18:00;;;;;;;9.85;6.63;;;16.00;93.30;;;;;;5091187;28;20452;-83
2022/04/27 08:23:16;;;;;;;7.50;6.10;;;15.70;93.40;;;;;;5095154;28;21015;-82
2022/04/27 08:25:42;;;;;;;7.20;5.03;;;15.60;92.40;;;;;;5090920;28;20799;-81
2022/04/27 08:28:08;;;;;;;6.35;5.38;;;15.80;92.30;;;;;;5093780;28;20380;-81
2022/04/27 08:30:37;;;;;;;6.50;4.95;;;16.20;92.40;;;;;;5092610;28;20419;-82
2022/04/27 08:33:03;;;;;;;7.03;4.53;;;16.20;90.50;;;;;;5091446;28;20377;-83
2022/04/27 08:35:29;;;;;;;5.30;3.83;;;15.70;90.30;;;;;;5092117;28;20727;-82
2022/04/27 08:37:55;;;;;;;4.65;3.30;;;15.70;88.70;;;;;;5092521;28;20442;-83
2022/04/27 08:40:21;;;;;;;8.43;3.22;;;15.80;84.60;;;;;;5089693;28;20384;-84
2022/04/27 08:42:49;;;;;;;3.55;2.17;;;16.00;86.70;;;;;;5093395;28;20370;-83
2022/04/27 08:45:16;;;;;;;3.50;2.50;;;15.80;80.60;;;;;;5090497;28;20399;-82
2022/04/27 08:47:42;;;;;;;5.13;4.20;;;15.80;84.90;;;;;;5090821;28;20407;-81
2022/04/27 08:50:15;;;;;;;4.70;2.70;;;;;;;;;;5091826;28;20738;-82
2022/04/27 08:52:41;;;;;;;4.15;2.85;;;16.20;84.10;;;;;;5090817;28;20699;-86
2022/04/27 08:55:08;;;;;;;4.40;3.38;;;16.20;81.80;;;;;;5091825;28;20375;-82
2022/04/27 08:57:34;;;;;;;3.77;3.20;;;16.10;81.90;;;;;;5089134;28;20381;-81
2022/04/27 09:00:01;;;;;;;2.97;2.55;;;15.80;81.00;;;;;;5092662;28;20369;-82
2022/04/27 09:02:27;;;;;;;2.80;2.50;;;15.70;79.50;;;;;;5092142;28;20381;-83
2022/04/27 09:05:20;;;;;;;5.03;3.13;;;15.70;80.50;;;;;;5086441;28;20871;-81
2022/04/27 09:07:51;;;;;;;3.67;2.63;;;16.20;81.10;;;;;;5085176;28;20413;-81
2022/04/27 09:10:24;;;;;;;4.80;3.20;;;16.20;76.80;;;;;;5105121;28;20383;-80
2022/04/27 09:12:57;;;;;;;3.15;2.85;;;16.00;79.70;;;;;;5085230;28;20387;-81
2022/04/27 09:15:26;;;;;;;5.85;3.20;;;16.20;80.40;;;;;;5088866;28;20414;-82
2022/04/27 09:20:57;;;;;;;4.85;3.28;;;16.20;81.00;;;;;;5087991;28;20380;-82
2022/04/27 09:23:32;;;;;;;4.35;3.25;;;16.40;79.00;;;;;;5089403;28;20475;-83
2022/04/27 09:26:13;;;;;;;5.87;4.30;;;16.60;80.40;;;;;;5089188;28;20404;-81
2022/04/27 09:28:39;;;;;;;9.43;3.87;;;16.60;80.30;;;;;;5089279;28;20400;-82
2022/04/27 09:31:05;;;;;;;7.77;4.07;;;16.80;79.50;;;;;;5089443;28;20450;-83
2022/04/27 09:33:38;;;;;;;7.43;4.55;;;16.60;79.30;;;;;;5081182;28;20370;-82
2022/04/27 09:36:23;;;;;;;82.77;15.27;;;16.90;78.30;;;;;;5070202;28;20378;-83
2022/04/27 09:38:51;;;;;;;5.50;3.60;;;17.20;79.70;;;;;;5070518;28;20377;-83
2022/04/27 09:41:40;;;;;;;5.85;3.10;;;17.90;79.50;;;;;;5070068;28;20390;-83
2022/04/27 09:44:06;;;;;;;15.98;4.22;;;18.00;79.10;;;;;;5066912;28;20899;-82
2022/04/27 09:46:38;;;;;;;4.80;3.27;;;;;;;;;;5070309;28;20413;-84
2022/04/27 09:49:04;;;;;;;4.47;3.50;;;17.70;77.10;;;;;;5050432;28;20507;-83
2022/04/27 09:51:48;;;;;;;5.33;3.97;;;17.50;75.30;;;;;;5068878;28;20502;-83
2022/04/27 09:54:23;;;;;;;5.57;3.60;;;17.30;77.40;;;;;;5070479;28;20378;-81
2022/04/27 09:56:51;;;;;;;22.48;5.93;;;17.10;76.80;;;;;;5071303;28;20389;-82
2022/04/27 09:59:20;;;;;;;5.05;4.32;;;17.40;80.70;;;;;;5066284;28;21231;-82
2022/04/27 10:01:47;;;;;;;54.03;14.68;;;17.60;77.80;;;;;;5072944;28;20398;-83
2022/04/27 10:04:18;;;;;;;5.38;4.00;;;17.80;77.50;;;;;;5068967;28;20424;-82
2022/04/27 10:06:44;;;;;;;4.93;3.67;;;18.00;75.10;;;;;;5068806;28;20402;-83
2022/04/27 10:09:10;;;;;;;3.20;2.90;;;17.70;74.80;;;;;;5087497;28;20394;-80
2022/04/27 10:11:37;;;;;;;5.20;3.30;;;17.60;75.50;;;;;;5068187;28;20394;-84
2022/04/27 10:14:03;;;;;;;5.35;3.30;;;17.60;75.00;;;;;;5069724;28;20401;-83
2022/04/27 10:16:30;;;;;;;4.13;3.20;;;17.50;78.10;;;;;;5069745;28;20377;-83
2022/04/27 10:18:56;;;;;;;4.20;3.80;;;17.30;76.00;;;;;;5068675;28;20401;-82
2022/04/27 10:21:56;;;;;;;7.53;4.35;;;17.00;79.00;;;;;;5069103;28;20377;-81
2022/04/27 10:24:49;;;;;;;12.95;4.43;;;16.80;79.60;;;;;;5066292;28;20447;-84
2022/04/27 10:27:15;;;;;;;6.68;3.88;;;17.10;79.30;;;;;;5069700;28;20810;-81
2022/04/27 10:29:41;;;;;;;4.63;3.87;;;;;;;;;;5068506;28;20721;-81
2022/04/27 10:32:07;;;;;;;6.18;3.80;;;;;;;;;;5066945;28;20425;-81
2022/04/27 10:34:34;;;;;;;4.57;3.50;;;;;;;;;;5068117;28;20942;-81
2022/04/27 10:37:01;;;;;;;4.85;3.13;;;;;;;;;;5068004;28;20518;-84
2022/04/27 10:39:33;;;;;;;5.13;3.38;;;;;;;;;;5070366;28;20744;-82
2022/04/27 10:42:07;;;;;;;4.50;3.58;;;;;;;;;;5084130;28;20375;-82
2022/04/27 10:44:53;;;;;;;2.90;2.40;;;;;;;;;;5071154;28;20389;-80
2022/04/27 10:47:20;;;;;;;3.13;2.42;;;;;;;;;;5071318;28;20414;-81
2022/04/27 10:49:47;;;;;;;3.67;2.67;;;;;;;;;;5075882;28;20366;-81
2022/04/27 10:52:13;;;;;;;4.53;2.53;;;;;;;;;;5073394;28;20389;-82
2022/04/27 10:54:43;;;;;;;5.30;3.40;;;;;;;;;;5073071;28;20389;-82
2022/04/27 10:57:16;;;;;;;3.70;3.10;;;;;;;;;;5073860;28;20407;-81
2022/04/27 10:59:49;;;;;;;4.97;3.25;;;;;;;;;;5072992;28;20394;-82
2022/04/27 11:02:34;;;;;;;4.05;3.22;;;;;;;;;;5069892;28;20378;-83
2022/04/27 11:05:01;;;;;;;3.13;2.72;;;;;;;;;;5069727;28;20891;-83
2022/04/27 11:07:33;;;;;;;4.38;3.33;;;;;;;;;;5072764;28;20501;-81
2022/04/27 11:10:32;;;;;;;5.35;3.85;;;;;;;;;;5071158;28;20370;-85
2022/04/27 11:12:58;;;;;;;3.63;3.33;;;;;;;;;;5039995;28;20398;-83
2022/04/27 11:15:25;;;;;;;14.60;4.30;;;;;;;;;;5073909;28;20397;-82
2022/04/27 11:18:01;;;;;;;4.57;3.40;;;;;;;;;;5072814;28;20385;-83
2022/04/27 11:20:27;;;;;;;5.43;3.70;;;;;;;;;;5086577;28;20390;-82
2022/04/27 11:22:54;;;;;;;3.60;3.30;;;;;;;;;;5072600;28;20444;-81
2022/04/27 11:25:27;;;;;;;5.32;4.10;;;;;;;;;;5071422;28;20841;-82
2022/04/27 11:27:53;;;;;;;4.50;3.85;;;;;;;;;;5074545;28;20410;-84
2022/04/27 11:30:19;;;;;;;6.95;4.00;;;;;;;;;;5074121;28;20377;-82
2022/04/27 11:32:49;;;;;;;5.10;3.50;;;;;;;;;;5072641;28;20386;-84
2022/04/27 11:35:15;;;;;;;4.97;3.70;;;;;;;;;;5075293;28;20916;-83
2022/04/27 11:37:41;;;;;;;7.68;4.10;;;;;;;;;;5073469;28;20469;-84
2022/04/27 11:40:12;;;;;;;8.15;3.75;;;;;;;;;;5073652;28;20380;-83
2022/04/27 11:42:41;;;;;;;5.57;3.53;;;;;;;;;;5072031;28;20379;-81
2022/04/27 11:45:08;;;;;;;5.40;4.65;;;;;;;;;;5073357;28;20374;-84
2022/04/27 11:47:34;;;;;;;7.80;4.30;;;;;;;;;;5072987;28;20414;-83
2022/04/27 11:50:01;;;;;;;8.30;4.53;;;;;;;;;;5071875;28;20385;-81
2022/04/27 11:52:28;;;;;;;5.95;3.90;;;;;;;;;;5074380;28;20401;-82
2022/04/27 11:55:00;;;;;;;5.57;3.80;;;;;;;;;;5074185;28;20810;-83
2022/04/27 11:57:28;;;;;;;6.53;4.27;;;;;;;;;;5073709;28;20465;-81
2022/04/27 11:59:57;;;;;;;5.40;4.40;;;;;;;;;;5073798;28;20386;-82
2022/04/27 12:02:25;;;;;;;5.55;4.00;;;;;;;;;;5071093;28;20788;-82
2022/04/27 12:04:51;;;;;;;6.67;3.50;;;;;;;;;;5073608;28;20374;-83
2022/04/27 12:07:19;;;;;;;4.45;3.25;;;;;;;;;;5074378;28;20539;-82
2022/04/27 12:09:59;;;;;;;4.63;3.13;;;;;;;;;;5072038;28;20375;-84
2022/04/27 12:12:26;;;;;;;5.57;3.20;;;;;;;;;;5084660;28;20387;-83
2022/04/27 12:14:53;;;;;;;5.17;3.07;;;;;;;;;;5072497;28;20374;-85
2022/04/27 12:17:37;;;;;;;7.50;3.80;;;;;;;;;;5073344;28;20377;-81
2022/04/27 12:20:04;;;;;;;5.40;3.20;;;;;;;;;;5085556;28;20367;-83
2022/04/27 12:22:30;;;;;;;4.88;3.30;;;;;;;;;;5070260;28;20414;-82
2022/04/27 12:25:01;;;;;;;3.63;2.95;;;;;;;;;;5070923;28;20386;-84
2022/04/27 12:27:28;;;;;;;6.25;3.20;;;;;;;;;;5073070;28;20405;-81
2022/04/27 12:30:04;;;;;;;5.53;3.05;;;;;;;;;;5072487;28;20417;-81
2022/04/27 12:32:33;;;;;;;5.37;3.00;;;;;;;;;;5086887;28;20378;-82
2022/04/27 12:37:50;;;;;;;6.97;3.20;;;;;;;;;;5072375;28;20428;-81
2022/04/27 12:40:18;;;;;;;7.72;3.22;;;;;;;;;;5073231;28;20359;-81
2022/04/27 12:43:04;;;;;;;4.35;3.53;;;;;;;;;;5071163;28;21052;-84
2022/04/27 12:45:31;;;;;;;4.05;3.35;;;;;;;;;;5071193;28;20387;-83
2022/04/27 12:47:57;;;;;;;5.85;3.17;;;;;;;;;;5070473;28;20410;-82
2022/04/27 12:50:23;;;;;;;5.13;3.45;;;;;;;;;;5072621;28;20373;-81
2022/04/27 12:52:49;;;;;;;5.13;3.20;;;;;;;;;;5069244;28;20378;-85
2022/04/27 12:55:17;;;;;;;4.40;4.00;;;;;;;;;;5069677;28;20427;-82
2022/04/27 12:57:46;;;;;;;5.78;3.83;;;;;;;;;;5068845;28;20879;-81
2022/04/27 13:00:13;;;;;;;5.35;4.05;;;;;;;;;;5068035;28;20374;-79
2022/04/27 13:02:39;;;;;;;4.85;4.05;;;;;;;;;;5068772;28;20430;-82
2022/04/27 13:05:05;;;;;;;5.90;4.15;;;;;;;;;;5073342;28;20381;-81
2022/04/27 13:07:31;;;;;;;6.33;4.47;;;;;;;;;;5071352;28;20433;-82
2022/04/27 13:12:43;;;;;;;7.38;4.25;;;;;;;;;;5068790;28;20427;-82
2022/04/27 13:15:10;;;;;;;5.65;3.97;;;;;;;;;;5070634;28;20453;-81
2022/04/27 13:17:36;;;;;;;6.43;3.97;;;;;;;;;;5071978;28;20815;-82
2022/04/27 13:20:03;;;;;;;5.25;3.33;;;;;;;;;;5073395;28;20390;-82
2022/04/27 13:22:29;;;;;;;4.40;3.45;;;;;;;;;;5071144;28;20378;-82
2022/04/27 13:24:54;;;;;;;6.95;3.33;;;;;;;;;;5069565;28;20386;-81
2022/04/27 13:27:23;;;;;;;6.85;3.72;;;;;;;;;;5070169;28;20479;-82
2022/04/27 13:29:49;;;;;;;7.40;3.13;;;;;;;;;;5068346;28;20813;-81
2022/04/27 13:32:16;;;;;;;4.82;3.10;;;;;;;;;;5068436;28;20419;-81
2022/04/27 13:34:42;;;;;;;5.50;3.10;;;;;;;;;;5069570;28;20466;-81
2022/04/27 13:37:08;;;;;;;4.07;3.00;;;;;;;;;;5070047;28;20919;-85
2022/04/27 13:39:34;;;;;;;4.93;2.80;;;;;;;;;;5069509;28;20366;-82
2022/04/27 13:42:00;;;;;;;4.45;3.08;;;;;;;;;;5070714;28;20383;-82
2022/04/27 13:44:29;;;;;;;7.07;2.83;;;;;;;;;;5069753;28;20429;-83